sensor_id;sensor_type;location;lat;lon;timestamp;pressure;altitude;pressure_sealevel;temperature;humidity
22775;BME280;11554;51.106;3.684;2022-12-10T00:00:00;100878.2;;;-1.87;100.0
22775;BME280;11554;51.106;3.684;2022-12-10T00:05:00;100881.14;;;-1.92;100.0
22775;BME280;11554;51.106;3.684;2022-12-10T00:10:00;100883.97;;;-1.92;100.0
22775;BME280;11554;51.106;3.684;2022-12-10T00:15:00;100877.66;;;-1.95;100.0
22775;BME280;11554;51.106;3.684;2022-12-10T00:20:00;100879.22;;;-2.06;100.0
22775;BME280;11554;51.106;3.684;2022-12-10T00:25:00;100878.72;;;-2.13;100.0
22775;BME280;11554;51.106;3.684;2022-12-10T00:30:00;100884.23;;;-2.22;100.0
22775;BME280;11554;51.106;3.684;2022-12-10T00:35:00;100888.65;;;-2.22;100.0
22775;BME280;11554;51.106;3.684;2022-12-10T00:40:00;100879.76999999999;;;-2.19;100.0
22775;BME280;11554;51.106;3.684;2022-12-10T00:45:00;100877.4;;;-2.16;100.0
22775;BME280;11554;51.106;3.684;2022-12-10T00:50:00;100877.45;;;-2.14;100.0
22775;BME280;11554;51.106;3.684;2022-12-10T00:55:00;100880.3;;;-2.10;100.0
22775;BME280;11554;51.106;3.684;2022-12-10T01:00:00;100875.19;;;-2.08;100.0
22775;BME280;11554;51.106;3.684;2022-12-10T01:05:00;100881.36;;;-2.06;100.0
22775;BME280;11554;51.106;3.684;2022-12-10T01:10:00;100886.47;;;-2.02;100.0
22775;BME280;11554;51.106;3.684;2022-12-10T01:15:00;100891.74;;;-1.99;100.0
22775;BME280;11554;51.106;3.684;2022-12-10T01:20:00;100891.85;;;-1.97;100.0
22775;BME280;11554;51.106;3.684;2022-12-10T01:25:00;100898.65999999999;;;-1.95;100.0
22775;BME280;11554;51.106;3.684;2022-12-10T01:30:00;100909.89;;;-1.93;100.0
22775;BME280;11554;51.106;3.684;2022-12-10T01:35:00;100920.73000000001;;;-1.95;100.0
22775;BME280;11554;51.106;3.684;2022-12-10T01:40:00;100920.09000000001;;;-1.96;100.0
22775;BME280;11554;51.106;3.684;2022-12-10T01:45:03;100925.43;;;-1.94;100.0
22775;BME280;11554;51.106;3.684;2022-12-10T01:50:00;100921.61;;;-1.91;100.0
22775;BME280;11554;51.106;3.684;2022-12-10T01:55:00;100923.13;;;-1.88;100.0
22775;BME280;11554;51.106;3.684;2022-12-10T02:00:02;100927.62;;;-1.84;100.0
22775;BME280;11554;51.106;3.684;2022-12-10T02:05:04;100926.71;;;-1.84;100.0
22775;BME280;11554;51.106;3.684;2022-12-10T02:10:02;100936.64;;;-1.83;100.0
22775;BME280;11554;51.106;3.684;2022-12-10T02:15:02;100938.49;;;-1.81;100.0
22775;BME280;11554;51.106;3.684;2022-12-10T02:20:03;100941.39;;;-1.79;100.0
22775;BME280;11554;51.106;3.684;2022-12-10T02:25:00;100941.63;;;-1.74;100.0
22775;BME280;11554;51.106;3.684;2022-12-10T02:30:00;100944.48;;;-1.69;100.0
22775;BME280;11554;51.106;3.684;2022-12-10T02:35:01;100939.9;;;-1.66;100.0
22775;BME280;11554;51.106;3.684;2022-12-10T02:40:02;100934.91;;;-1.61;100.0
22775;BME280;11554;51.106;3.684;2022-12-10T02:45:00;100930.31;;;-1.57;100.0
22775;BME280;11554;51.106;3.684;2022-12-10T02:50:00;100926.37;;;-1.53;100.0
22775;BME280;11554;51.106;3.684;2022-12-10T02:55:00;100927.89;;;-1.48;100.0
22775;BME280;11554;51.106;3.684;2022-12-10T03:00:03;100933.53;;;-1.44;100.0
22775;BME280;11554;51.106;3.684;2022-12-10T03:05:02;100928.58;;;-1.41;100.0
22775;BME280;11554;51.106;3.684;2022-12-10T03:10:01;100931.91;;;-1.36;100.0
22775;BME280;11554;51.106;3.684;2022-12-10T03:15:00;100935.1;;;-1.33;100.0
22775;BME280;11554;51.106;3.684;2022-12-10T03:20:00;100933.45000000001;;;-1.30;100.0
22775;BME280;11554;51.106;3.684;2022-12-10T03:25:00;100934.47;;;-1.27;100.0
22775;BME280;11554;51.106;3.684;2022-12-10T03:30:00;100932.11;;;-1.22;100.0
22775;BME280;11554;51.106;3.684;2022-12-10T03:35:00;100925.14;;;-1.20;100.0
22775;BME280;11554;51.106;3.684;2022-12-10T03:40:00;100919.59000000001;;;-1.19;100.0
22775;BME280;11554;51.106;3.684;2022-12-10T03:45:00;100922.19;;;-1.17;100.0
22775;BME280;11554;51.106;3.684;2022-12-10T03:50:00;100916.4;;;-1.15;100.0
22775;BME280;11554;51.106;3.684;2022-12-10T03:55:00;100911.97;;;-1.12;100.0
22775;BME280;11554;51.106;3.684;2022-12-10T04:00:00;100913.23;;;-1.10;100.0
22775;BME280;11554;51.106;3.684;2022-12-10T04:05:00;100916.36;;;-1.08;100.0
22775;BME280;11554;51.106;3.684;2022-12-10T04:10:00;100906.56;;;-1.05;100.0
22775;BME280;11554;51.106;3.684;2022-12-10T04:15:00;100905.3;;;-1.04;100.0
22775;BME280;11554;51.106;3.684;2022-12-10T04:20:00;100912.87;;;-1.03;100.0
22775;BME280;11554;51.106;3.684;2022-12-10T04:25:00;100916.66;;;-1.03;100.0
22775;BME280;11554;51.106;3.684;2022-12-10T04:30:00;100914.92;;;-1.02;100.0
22775;BME280;11554;51.106;3.684;2022-12-10T04:35:00;100916.31999999999;;;-1.01;100.0
22775;BME280;11554;51.106;3.684;2022-12-10T04:40:00;100925.48000000001;;;-1.00;100.0
22775;BME280;11554;51.106;3.684;2022-12-10T04:45:00;100921.74;;;-0.98;100.0
22775;BME280;11554;51.106;3.684;2022-12-10T04:50:00;100919.79;;;-0.99;100.0
22775;BME280;11554;51.106;3.684;2022-12-10T04:55:00;100921.04000000001;;;-0.98;100.0
22775;BME280;11554;51.106;3.684;2022-12-10T05:00:00;100916.76999999999;;;-0.96;100.0
22775;BME280;11554;51.106;3.684;2022-12-10T05:05:00;100918.16;;;-0.96;100.0
22775;BME280;11554;51.106;3.684;2022-12-10T05:10:00;100915.7;;;-1.00;100.0
22775;BME280;11554;51.106;3.684;2022-12-10T05:15:00;100919.82;;;-0.98;100.0
22775;BME280;11554;51.106;3.684;2022-12-10T05:20:00;100918.59;;;-0.97;100.0
22775;BME280;11554;51.106;3.684;2022-12-10T05:25:00;100928.53;;;-0.98;100.0
22775;BME280;11554;51.106;3.684;2022-12-10T05:30:00;100926.92;;;-1.00;100.0
22775;BME280;11554;51.106;3.684;2022-12-10T05:35:00;100930.12999999999;;;-0.98;100.0
22775;BME280;11554;51.106;3.684;2022-12-10T05:40:00;100932.0;;;-1.00;100.0
22775;BME280;11554;51.106;3.684;2022-12-10T05:45:00;100929.86;;;-0.98;100.0
22775;BME280;11554;51.106;3.684;2022-12-10T05:50:00;100924.37;;;-0.97;100.0
22775;BME280;11554;51.106;3.684;2022-12-10T05:55:00;100933.56;;;-0.95;100.0
22775;BME280;11554;51.106;3.684;2022-12-10T06:00:00;100945.0;;;-0.95;100.0
22775;BME280;11554;51.106;3.684;2022-12-10T06:05:00;100948.33;;;-0.94;100.0
22775;BME280;11554;51.106;3.684;2022-12-10T06:10:00;100954.58;;;-0.94;100.0
22775;BME280;11554;51.106;3.684;2022-12-10T06:15:00;100959.34;;;-0.96;100.0
22775;BME280;11554;51.106;3.684;2022-12-10T06:20:00;100968.28;;;-0.97;100.0
22775;BME280;11554;51.106;3.684;2022-12-10T06:25:00;100963.16;;;-0.95;100.0
22775;BME280;11554;51.106;3.684;2022-12-10T06:30:00;100970.86;;;-0.95;100.0
22775;BME280;11554;51.106;3.684;2022-12-10T06:35:00;100976.86;;;-0.94;100.0
22775;BME280;11554;51.106;3.684;2022-12-10T06:40:00;100979.78;;;-0.92;100.0
22775;BME280;11554;51.106;3.684;2022-12-10T06:45:00;100969.47;;;-0.91;100.0
22775;BME280;11554;51.106;3.684;2022-12-10T06:50:00;100970.33;;;-0.92;100.0
22775;BME280;11554;51.106;3.684;2022-12-10T06:55:00;100974.68000000001;;;-0.90;100.0
22775;BME280;11554;51.106;3.684;2022-12-10T07:00:00;100976.23;;;-0.89;100.0
22775;BME280;11554;51.106;3.684;2022-12-10T07:05:00;100983.89;;;-0.86;100.0
22775;BME280;11554;51.106;3.684;2022-12-10T07:10:03;100980.3;;;-0.87;100.0
22775;BME280;11554;51.106;3.684;2022-12-10T07:15:00;100985.94;;;-0.85;100.0
22775;BME280;11554;51.106;3.684;2022-12-10T07:20:00;100987.58;;;-0.84;100.0
22775;BME280;11554;51.106;3.684;2022-12-10T07:25:00;100990.66;;;-0.83;100.0
22775;BME280;11554;51.106;3.684;2022-12-10T07:30:00;100985.33;;;-0.82;100.0
22775;BME280;11554;51.106;3.684;2022-12-10T07:35:00;100993.62999999999;;;-0.80;100.0
22775;BME280;11554;51.106;3.684;2022-12-10T07:40:00;101000.78;;;-0.82;100.0
22775;BME280;11554;51.106;3.684;2022-12-10T07:45:00;101005.26999999999;;;-0.82;100.0
22775;BME280;11554;51.106;3.684;2022-12-10T07:50:00;101010.83;;;-0.78;100.0
22775;BME280;11554;51.106;3.684;2022-12-10T07:55:00;101009.27;;;-0.74;100.0
22775;BME280;11554;51.106;3.684;2022-12-10T08:00:00;101013.23;;;-0.73;100.0
22775;BME280;11554;51.106;3.684;2022-12-10T08:05:00;101011.71;;;-0.70;100.0
22775;BME280;11554;51.106;3.684;2022-12-10T08:10:00;101011.99;;;-0.68;100.0
22775;BME280;11554;51.106;3.684;2022-12-10T08:15:00;101020.23000000001;;;-0.68;100.0
22775;BME280;11554;51.106;3.684;2022-12-10T08:20:00;101023.8;;;-0.63;100.0
22775;BME280;11554;51.106;3.684;2022-12-10T08:25:00;101028.22;;;-0.61;100.0
22775;BME280;11554;51.106;3.684;2022-12-10T08:30:00;101033.87;;;-0.57;100.0
22775;BME280;11554;51.106;3.684;2022-12-10T08:35:00;101040.31999999999;;;-0.47;100.0
22775;BME280;11554;51.106;3.684;2022-12-10T08:40:00;101037.45;;;-0.38;100.0
22775;BME280;11554;51.106;3.684;2022-12-10T08:45:00;101043.09;;;-0.33;100.0
22775;BME280;11554;51.106;3.684;2022-12-10T08:50:00;101040.62;;;-0.22;100.0
22775;BME280;11554;51.106;3.684;2022-12-10T08:55:00;101046.48;;;-0.13;100.0
22775;BME280;11554;51.106;3.684;2022-12-10T09:00:00;101049.73;;;0.00;100.0
22775;BME280;11554;51.106;3.684;2022-12-10T09:05:00;101049.91;;;0.03;100.0
22775;BME280;11554;51.106;3.684;2022-12-10T09:10:00;101051.59;;;0.10;100.0
22775;BME280;11554;51.106;3.684;2022-12-10T09:15:00;101049.19;;;0.17;100.0
22775;BME280;11554;51.106;3.684;2022-12-10T09:20:00;101046.88;;;0.30;100.0
22775;BME280;11554;51.106;3.684;2022-12-10T09:25:00;101050.03;;;0.37;100.0
22775;BME280;11554;51.106;3.684;2022-12-10T09:30:00;101050.05;;;0.22;100.0
22775;BME280;11554;51.106;3.684;2022-12-10T09:35:00;101049.67;;;0.22;100.0
22775;BME280;11554;51.106;3.684;2022-12-10T09:40:00;101056.55;;;0.19;100.0
22775;BME280;11554;51.106;3.684;2022-12-10T09:45:02;101058.32;;;0.16;100.0
22775;BME280;11554;51.106;3.684;2022-12-10T09:50:02;101066.14;;;0.19;100.0
22775;BME280;11554;51.106;3.684;2022-12-10T09:55:02;101066.26;;;0.30;100.0
22775;BME280;11554;51.106;3.684;2022-12-10T10:00:02;101070.93;;;0.56;100.0
22775;BME280;11554;51.106;3.684;2022-12-10T10:05:01;101070.87;;;0.65;100.0
22775;BME280;11554;51.106;3.684;2022-12-10T10:10:00;101072.03;;;0.75;100.0
22775;BME280;11554;51.106;3.684;2022-12-10T10:15:09;101077.76;;;0.84;100.0
22775;BME280;11554;51.106;3.684;2022-12-10T10:20:00;101077.67;;;1.03;100.0
22775;BME280;11554;51.106;3.684;2022-12-10T10:25:00;101079.24;;;1.13;100.0
22775;BME280;11554;51.106;3.684;2022-12-10T10:30:03;101081.94;;;1.31;100.0
22775;BME280;11554;51.106;3.684;2022-12-10T10:35:00;101078.33;;;1.13;100.0
22775;BME280;11554;51.106;3.684;2022-12-10T10:40:00;101081.16;;;1.16;100.0
22775;BME280;11554;51.106;3.684;2022-12-10T10:45:01;101080.90999999999;;;1.37;100.0
22775;BME280;11554;51.106;3.684;2022-12-10T10:50:00;101082.6;;;1.42;100.0
22775;BME280;11554;51.106;3.684;2022-12-10T10:55:00;101079.28;;;1.41;100.0
22775;BME280;11554;51.106;3.684;2022-12-10T11:00:03;101080.69;;;1.49;100.0
22775;BME280;11554;51.106;3.684;2022-12-10T11:05:04;101084.12;;;1.63;100.0
22775;BME280;11554;51.106;3.684;2022-12-10T11:10:00;101078.11;;;1.66;100.0
22775;BME280;11554;51.106;3.684;2022-12-10T11:15:00;101078.27;;;1.54;100.0
22775;BME280;11554;51.106;3.684;2022-12-10T11:20:01;101079.29000000001;;;1.58;100.0
22775;BME280;11554;51.106;3.684;2022-12-10T11:25:00;101081.15000000001;;;1.78;100.0
22775;BME280;11554;51.106;3.684;2022-12-10T11:30:01;101075.87;;;1.91;100.0
22775;BME280;11554;51.106;3.684;2022-12-10T11:35:02;101073.68000000001;;;2.00;100.0
22775;BME280;11554;51.106;3.684;2022-12-10T11:45:02;101063.7;;;2.06;100.0
22775;BME280;11554;51.106;3.684;2022-12-10T11:50:03;101059.61;;;2.14;100.0
22775;BME280;11554;51.106;3.684;2022-12-10T11:55:02;101064.81;;;2.11;100.0
22775;BME280;11554;51.106;3.684;2022-12-10T12:00:02;101063.9;;;2.10;100.0
22775;BME280;11554;51.106;3.684;2022-12-10T12:05:07;101062.94;;;2.17;100.0
22775;BME280;11554;51.106;3.684;2022-12-10T12:15:02;101064.47;;;2.28;100.0
22775;BME280;11554;51.106;3.684;2022-12-10T12:20:01;101062.15999999999;;;2.34;100.0
22775;BME280;11554;51.106;3.684;2022-12-10T12:25:01;101063.39;;;2.37;100.0
22775;BME280;11554;51.106;3.684;2022-12-10T12:30:02;101066.74;;;2.49;100.0
22775;BME280;11554;51.106;3.684;2022-12-10T12:35:01;101068.19;;;2.47;100.0
22775;BME280;11554;51.106;3.684;2022-12-10T12:40:02;101065.83;;;2.33;100.0
22775;BME280;11554;51.106;3.684;2022-12-10T12:45:01;101065.71;;;2.42;100.0
22775;BME280;11554;51.106;3.684;2022-12-10T12:50:00;101066.88;;;2.49;100.0
22775;BME280;11554;51.106;3.684;2022-12-10T12:55:02;101060.33;;;2.41;100.0
22775;BME280;11554;51.106;3.684;2022-12-10T13:00:02;101059.18000000001;;;2.50;100.0
22775;BME280;11554;51.106;3.684;2022-12-10T13:05:00;101062.77;;;2.46;100.0
22775;BME280;11554;51.106;3.684;2022-12-10T13:10:09;101064.92;;;2.56;100.0
22775;BME280;11554;51.106;3.684;2022-12-10T13:15:02;101068.45;;;2.52;100.0
22775;BME280;11554;51.106;3.684;2022-12-10T13:25:06;101065.94;;;2.35;100.0
22775;BME280;11554;51.106;3.684;2022-12-10T13:30:02;101065.36;;;2.31;100.0
22775;BME280;11554;51.106;3.684;2022-12-10T13:40:09;101066.99;;;2.34;100.0
22775;BME280;11554;51.106;3.684;2022-12-10T13:45:01;101068.16;;;2.36;100.0
22775;BME280;11554;51.106;3.684;2022-12-10T13:50:02;101067.8;;;2.29;100.0
22775;BME280;11554;51.106;3.684;2022-12-10T13:55:04;101071.78;;;2.25;100.0
22775;BME280;11554;51.106;3.684;2022-12-10T14:00:01;101078.66;;;2.25;100.0
22775;BME280;11554;51.106;3.684;2022-12-10T14:05:05;101082.46;;;2.32;100.0
22775;BME280;11554;51.106;3.684;2022-12-10T14:10:00;101089.78;;;2.44;100.0
22775;BME280;11554;51.106;3.684;2022-12-10T14:15:01;101101.2;;;2.63;100.0
22775;BME280;11554;51.106;3.684;2022-12-10T14:20:01;101101.0;;;2.71;100.0
22775;BME280;11554;51.106;3.684;2022-12-10T14:25:01;101105.75;;;2.60;100.0
22775;BME280;11554;51.106;3.684;2022-12-10T14:30:02;101106.03;;;2.85;100.0
22775;BME280;11554;51.106;3.684;2022-12-10T14:35:00;101107.09000000001;;;3.17;100.0
22775;BME280;11554;51.106;3.684;2022-12-10T14:40:00;101111.49;;;3.07;100.0
22775;BME280;11554;51.106;3.684;2022-12-10T14:45:02;101115.55;;;2.94;100.0
22775;BME280;11554;51.106;3.684;2022-12-10T14:50:00;101115.22;;;2.85;100.0
22775;BME280;11554;51.106;3.684;2022-12-10T14:55:00;101111.25;;;2.79;100.0
22775;BME280;11554;51.106;3.684;2022-12-10T15:00:03;101112.62000000001;;;2.96;100.0
22775;BME280;11554;51.106;3.684;2022-12-10T15:05:00;101114.45999999999;;;3.23;100.0
22775;BME280;11554;51.106;3.684;2022-12-10T15:10:00;101112.15999999999;;;3.25;100.0
22775;BME280;11554;51.106;3.684;2022-12-10T15:15:03;101122.11;;;3.06;100.0
22775;BME280;11554;51.106;3.684;2022-12-10T15:20:00;101124.92;;;2.76;100.0
22775;BME280;11554;51.106;3.684;2022-12-10T15:25:03;101129.81;;;2.56;100.0
22775;BME280;11554;51.106;3.684;2022-12-10T15:30:20;101130.02;;;2.37;100.0
22775;BME280;11554;51.106;3.684;2022-12-10T15:35:01;101127.06;;;2.10;100.0
22775;BME280;11554;51.106;3.684;2022-12-10T15:40:02;101137.95;;;1.88;100.0
22775;BME280;11554;51.106;3.684;2022-12-10T15:45:02;101135.5;;;1.71;100.0
22775;BME280;11554;51.106;3.684;2022-12-10T15:50:00;101132.12;;;1.67;100.0
22775;BME280;11554;51.106;3.684;2022-12-10T15:55:00;101127.26;;;1.52;100.0
22775;BME280;11554;51.106;3.684;2022-12-10T16:00:02;101126.56;;;1.25;100.0
22775;BME280;11554;51.106;3.684;2022-12-10T16:05:00;101123.5;;;1.10;100.0
22775;BME280;11554;51.106;3.684;2022-12-10T16:10:00;101122.29;;;0.96;100.0
22775;BME280;11554;51.106;3.684;2022-12-10T16:15:00;101121.01;;;0.81;100.0
22775;BME280;11554;51.106;3.684;2022-12-10T16:20:05;101131.37000000001;;;0.75;100.0
22775;BME280;11554;51.106;3.684;2022-12-10T16:25:00;101124.45999999999;;;0.73;100.0
22775;BME280;11554;51.106;3.684;2022-12-10T16:30:00;101129.83;;;0.70;100.0
22775;BME280;11554;51.106;3.684;2022-12-10T16:35:00;101133.09000000001;;;0.69;100.0
22775;BME280;11554;51.106;3.684;2022-12-10T16:40:00;101141.12;;;0.63;100.0
22775;BME280;11554;51.106;3.684;2022-12-10T16:45:00;101144.9;;;0.57;100.0
22775;BME280;11554;51.106;3.684;2022-12-10T16:50:00;101148.78;;;0.57;100.0
22775;BME280;11554;51.106;3.684;2022-12-10T16:55:00;101152.15;;;0.57;100.0
22775;BME280;11554;51.106;3.684;2022-12-10T17:00:00;101144.69;;;0.56;100.0
22775;BME280;11554;51.106;3.684;2022-12-10T17:05:00;101146.7;;;0.53;100.0
22775;BME280;11554;51.106;3.684;2022-12-10T17:10:00;101152.29000000001;;;0.52;100.0
22775;BME280;11554;51.106;3.684;2022-12-10T17:15:00;101148.85;;;0.50;100.0
22775;BME280;11554;51.106;3.684;2022-12-10T17:20:00;101141.86;;;0.49;100.0
22775;BME280;11554;51.106;3.684;2022-12-10T17:25:00;101135.64;;;0.49;100.0
22775;BME280;11554;51.106;3.684;2022-12-10T17:30:00;101136.91;;;0.48;100.0
22775;BME280;11554;51.106;3.684;2022-12-10T17:35:00;101136.23999999999;;;0.42;100.0
22775;BME280;11554;51.106;3.684;2022-12-10T17:40:00;101136.67;;;0.40;100.0
22775;BME280;11554;51.106;3.684;2022-12-10T17:45:00;101136.56;;;0.39;100.0
22775;BME280;11554;51.106;3.684;2022-12-10T17:50:00;101138.92;;;0.40;100.0
22775;BME280;11554;51.106;3.684;2022-12-10T17:55:00;101135.55;;;0.40;100.0
22775;BME280;11554;51.106;3.684;2022-12-10T18:00:00;101140.59999999999;;;0.38;100.0
22775;BME280;11554;51.106;3.684;2022-12-10T18:05:00;101137.39;;;0.38;100.0
22775;BME280;11554;51.106;3.684;2022-12-10T18:10:00;101137.77;;;0.36;100.0
22775;BME280;11554;51.106;3.684;2022-12-10T18:15:00;101130.53;;;0.38;100.0
22775;BME280;11554;51.106;3.684;2022-12-10T18:20:00;101130.8;;;0.38;100.0
22775;BME280;11554;51.106;3.684;2022-12-10T18:25:00;101128.27;;;0.37;100.0
22775;BME280;11554;51.106;3.684;2022-12-10T18:30:00;101122.96;;;0.34;100.0
22775;BME280;11554;51.106;3.684;2022-12-10T18:35:00;101119.61;;;0.31;100.0
22775;BME280;11554;51.106;3.684;2022-12-10T18:40:00;101126.06;;;0.29;100.0
22775;BME280;11554;51.106;3.684;2022-12-10T18:45:00;101129.97;;;0.30;100.0
22775;BME280;11554;51.106;3.684;2022-12-10T18:50:00;101129.9;;;0.29;100.0
22775;BME280;11554;51.106;3.684;2022-12-10T18:55:00;101137.66;;;0.19;100.0
22775;BME280;11554;51.106;3.684;2022-12-10T19:00:00;101143.05;;;0.02;100.0
22775;BME280;11554;51.106;3.684;2022-12-10T19:05:00;101150.37999999999;;;0.00;100.0
22775;BME280;11554;51.106;3.684;2022-12-10T19:10:00;101156.67;;;0.03;100.0
22775;BME280;11554;51.106;3.684;2022-12-10T19:15:00;101148.91;;;-0.01;100.0
22775;BME280;11554;51.106;3.684;2022-12-10T19:20:00;101141.62;;;-0.09;100.0
22775;BME280;11554;51.106;3.684;2022-12-10T19:25:00;101144.33;;;-0.15;100.0
22775;BME280;11554;51.106;3.684;2022-12-10T19:30:00;101145.93;;;-0.19;100.0
22775;BME280;11554;51.106;3.684;2022-12-10T19:35:00;101142.55;;;-0.23;100.0
22775;BME280;11554;51.106;3.684;2022-12-10T19:40:00;101146.69;;;-0.28;100.0
22775;BME280;11554;51.106;3.684;2022-12-10T19:45:00;101145.83;;;-0.29;100.0
22775;BME280;11554;51.106;3.684;2022-12-10T19:50:00;101147.09;;;-0.26;100.0
22775;BME280;11554;51.106;3.684;2022-12-10T19:55:01;101143.01000000001;;;-0.22;100.0
22775;BME280;11554;51.106;3.684;2022-12-10T20:00:00;101143.07;;;-0.18;100.0
22775;BME280;11554;51.106;3.684;2022-12-10T20:05:00;101142.76999999999;;;-0.14;100.0
22775;BME280;11554;51.106;3.684;2022-12-10T20:10:00;101136.77;;;-0.11;100.0
22775;BME280;11554;51.106;3.684;2022-12-10T20:15:00;101136.56;;;-0.10;100.0
22775;BME280;11554;51.106;3.684;2022-12-10T20:20:00;101134.81;;;-0.10;100.0
22775;BME280;11554;51.106;3.684;2022-12-10T20:25:00;101145.43;;;-0.11;100.0
22775;BME280;11554;51.106;3.684;2022-12-10T20:30:00;101142.44;;;-0.10;100.0
22775;BME280;11554;51.106;3.684;2022-12-10T20:35:00;101143.89;;;-0.10;100.0
22775;BME280;11554;51.106;3.684;2022-12-10T20:40:00;101153.45999999999;;;-0.13;100.0
22775;BME280;11554;51.106;3.684;2022-12-10T20:45:00;101148.67;;;-0.12;100.0
22775;BME280;11554;51.106;3.684;2022-12-10T20:50:00;101143.38;;;-0.12;100.0
22775;BME280;11554;51.106;3.684;2022-12-10T20:55:00;101143.73000000001;;;-0.14;100.0
22775;BME280;11554;51.106;3.684;2022-12-10T21:00:00;101148.17;;;-0.11;100.0
22775;BME280;11554;51.106;3.684;2022-12-10T21:05:00;101156.3;;;-0.10;100.0
22775;BME280;11554;51.106;3.684;2022-12-10T21:10:00;101163.56;;;-0.08;100.0
22775;BME280;11554;51.106;3.684;2022-12-10T21:15:00;101160.29999999999;;;-0.05;100.0
22775;BME280;11554;51.106;3.684;2022-12-10T21:20:00;101161.21;;;-0.04;100.0
22775;BME280;11554;51.106;3.684;2022-12-10T21:25:00;101158.7;;;-0.02;100.0
22775;BME280;11554;51.106;3.684;2022-12-10T21:30:00;101156.43;;;0.00;100.0
22775;BME280;11554;51.106;3.684;2022-12-10T21:35:00;101149.17;;;0.03;100.0
22775;BME280;11554;51.106;3.684;2022-12-10T21:40:00;101148.99;;;0.02;100.0
22775;BME280;11554;51.106;3.684;2022-12-10T21:45:00;101139.81;;;0.04;100.0
22775;BME280;11554;51.106;3.684;2022-12-10T21:50:00;101139.73;;;0.06;100.0
22775;BME280;11554;51.106;3.684;2022-12-10T21:55:00;101140.52;;;0.08;100.0
22775;BME280;11554;51.106;3.684;2022-12-10T22:00:00;101141.38;;;0.09;100.0
22775;BME280;11554;51.106;3.684;2022-12-10T22:05:00;101137.36;;;0.10;100.0
22775;BME280;11554;51.106;3.684;2022-12-10T22:10:00;101148.19;;;0.14;100.0
22775;BME280;11554;51.106;3.684;2022-12-10T22:15:00;101141.86;;;0.17;100.0
22775;BME280;11554;51.106;3.684;2022-12-10T22:20:00;101144.37000000001;;;0.18;100.0
22775;BME280;11554;51.106;3.684;2022-12-10T22:25:00;101144.41;;;0.21;100.0
22775;BME280;11554;51.106;3.684;2022-12-10T22:30:00;101148.51999999999;;;0.23;100.0
22775;BME280;11554;51.106;3.684;2022-12-10T22:35:00;101149.17;;;0.24;100.0
22775;BME280;11554;51.106;3.684;2022-12-10T22:40:00;101156.23000000001;;;0.27;100.0
22775;BME280;11554;51.106;3.684;2022-12-10T22:45:00;101158.36;;;0.30;100.0
22775;BME280;11554;51.106;3.684;2022-12-10T22:50:00;101160.51999999999;;;0.31;100.0
22775;BME280;11554;51.106;3.684;2022-12-10T22:55:00;101158.18000000001;;;0.34;100.0
22775;BME280;11554;51.106;3.684;2022-12-10T23:00:00;101154.72;;;0.33;100.0
22775;BME280;11554;51.106;3.684;2022-12-10T23:05:00;101156.08;;;0.35;100.0
22775;BME280;11554;51.106;3.684;2022-12-10T23:10:00;101151.92;;;0.35;100.0
22775;BME280;11554;51.106;3.684;2022-12-10T23:15:00;101153.83;;;0.36;100.0
22775;BME280;11554;51.106;3.684;2022-12-10T23:20:00;101150.56;;;0.38;100.0
22775;BME280;11554;51.106;3.684;2022-12-10T23:25:00;101150.8;;;0.39;100.0
22775;BME280;11554;51.106;3.684;2022-12-10T23:30:00;101153.5;;;0.38;100.0
22775;BME280;11554;51.106;3.684;2022-12-10T23:35:00;101149.63;;;0.38;100.0
22775;BME280;11554;51.106;3.684;2022-12-10T23:40:00;101151.79000000001;;;0.36;100.0
22775;BME280;11554;51.106;3.684;2022-12-10T23:45:00;101154.44;;;0.37;100.0
22775;BME280;11554;51.106;3.684;2022-12-10T23:50:00;101158.59;;;0.36;100.0
22775;BME280;11554;51.106;3.684;2022-12-10T23:55:00;101157.5;;;0.34;100.0
